Mystic, CT

6:46 PM EST on November 26, 2014 (GMT -0500)
MARITIME | Change Station
CLOSE
Current Station
Personal Weather Station
Location: New London, CT
Elevation: 65 ft
Nearby Weather Stations
Active Advisory: Wind Advisory Active Notice: Public Information Statement

Elev 65 ft 41.31 °N, 72.08 °W | Updated 1 hour ago

Rain
Rain
38 °F
Feels Like 27 °F
N
22
Wind Variable Wind from NNE
Gusts 32.0 mph

Today
High -- | Low -- °F
--% Chance of Precip.
Yesterday
High -- | Low -- °F
Precip. -- in
6:48 AM 4:21 PM
Waxing Crescent, 23% visible
Pressure 29.67 in
Visibility 4.0 miles
Clouds Overcast 1700 ft
Windchill 27 °F
Dew Point 36 °F
Humidity 90%
Rainfall -999.00 in
Snow Depth Not available.
UV 0 out of 12
Pollen .10 out of 12
Air Quality Not available.
Flu Activity Not available.
METAR KGON 262256Z 03022G30KT 4SM -RA BR OVC017 03/03 A2967 RMK AO2 PK WND 03030/2255 PRESFR SLP046 P0003 T00280028

More Conditions Fewer Conditions

Pressure 29.67 in
Visibility 4.0 miles
Clouds Overcast 1700 ft
Windchill 27 °F
Dew Point 36 °F
Humidity 90%
Rainfall -999.00 in
Snow Depth Not available.
UV 0 out of 12
Pollen .10 out of 12
Air Quality Not available.
Flu Activity Not available.
METAR KGON 262256Z 03022G30KT 4SM -RA BR OVC017 03/03 A2967 RMK AO2 PK WND 03030/2255 PRESFR SLP046 P0003 T00280028

More Conditions Fewer Conditions

10-Day Weather Forecast

Almanac

Astronomy

Nov. 26, 2014 Rise Set
Actual Time
Civil Twilight
Nautical Twilight
Astronomical Twilight
Moon
Length of Visible Light
Length of Day
Tomorrow will be .
, % of the Moon is Illuminated

Today's Extremes

State Highs State Lows

Community

WunderPhotos

Upload Photos

1,773,921 photos uploaded!

WunderBlogs® & News

Nearby

Air Quality

  Air Quality AQ Index Pollutant
Not available.

Snow Depth

Station Depth Elevation

Earthquake Activity

City Distance Mag. Time & Date
Minimum magnitude displayed is 2.5.

Coastal Water Temperatures

Place Temperature

Nearby Weather Stations